Skip to main content

NOAA/GLERL Met Station at Chicago, IL

Previous 5 days (top of hour only)
See also Previous 3 Hours (2 minute increments)
Jump down to Data
Switch to [English][Metric]
Zoom: Click and drag, Pan: shift-click and drag, Unzoom: double-click, Unzoom All




Note: Speed = mean wind during 2-minute period at top of hour,
Gust = max wind during 2-minute period at top of hour,
Peak = max wind during entire hour.
• See also 5-day windrose plot


NOAA/GLERL Met Station at Chicago, IL

Previous 5 days (top of hour only)
See also Previous 3 Hours (2 minute increments)
Jump up to Graphs
Switch to [English][Metric]
                  Wind  Wind  Wind   Air   Dew   Rel
                   Spd   Gst   Dir  Temp    Pt   Hum
YYYY-MM-DD   CST   m/s   m/s   deg     C     C     %
2020-02-18 00:00 -99.0 -99.0   -99   0.0   0.0   0.0
2020-02-17 11:00   7.9   8.6   140   1.3  -1.2  83.2
2020-02-17 10:00   6.8   8.0   145   1.1  -1.3  84.1
2020-02-17 09:00   6.6   7.1   128   0.9  -1.3  85.3
2020-02-17 08:00   8.2   8.9   126   0.5  -1.5  86.3
2020-02-17 07:00   6.9   7.6   127   0.1  -1.5  88.8
2020-02-17 06:00   7.0   7.8   126   0.2  -1.1  90.7
2020-02-17 05:00   6.9   7.6   108   0.6  -0.7  91.1
2020-02-17 04:00   6.3   6.8    91   0.7  -0.6  90.7
2020-02-17 03:00   4.7   5.0   104   0.7   0.2  96.7
2020-02-17 02:00   3.9   4.0   106   0.7   0.6  99.5
2020-02-17 01:00   3.6   3.7   122   0.8   0.6  98.5
2020-02-17 00:00   5.1   5.5    97   0.8   0.3  96.7
2020-02-16 23:00   3.2   3.5    89   0.5   0.4  99.3
2020-02-16 22:00   2.7   2.9    98   0.2   0.0  98.5
2020-02-16 21:00   1.8   1.9   141  -0.2  -0.4  98.8
2020-02-16 20:00   2.4   2.5   181  -0.1  -0.7  95.6
2020-02-16 19:00   1.6   1.7   153  -0.1  -1.0  93.5
2020-02-16 18:00   2.3   2.4   133  -0.2  -1.6  90.0
2020-02-16 17:00   2.5   2.8   101   0.1  -2.4  83.4
2020-02-16 16:00   2.9   3.1   100   0.0  -2.8  81.2
2020-02-16 15:00   2.4   2.6    39  -0.5  -3.2  81.8
2020-02-16 14:00   3.0   3.1    38  -1.0  -3.3  84.7
2020-02-16 13:00   4.1   4.6     4  -1.1  -3.5  83.8
2020-02-16 12:00   4.8   4.9     4  -1.0  -4.5  76.9
2020-02-16 11:00   1.3   1.5    17  -0.8  -5.4  71.2
2020-02-16 10:00   3.8   4.2   311  -1.0  -3.8  81.4
2020-02-16 09:00   3.8   4.1   280  -2.0  -3.4  90.0
2020-02-16 08:00   3.5   3.8   269  -2.2  -3.5  91.0
2020-02-16 07:00   3.2   3.5   260  -1.9  -3.5  89.0
2020-02-16 06:00   2.6   3.0   286  -2.3  -3.0  94.8
2020-02-16 05:00   3.9   4.5   292  -2.1  -2.9  94.5
2020-02-16 04:00   5.5   5.7   277  -2.4  -3.0  95.9
2020-02-16 03:00   7.0   7.7   284  -1.6  -2.7  92.3
2020-02-16 02:00   6.0   6.7   278  -1.1  -2.5  90.1
2020-02-16 01:00   6.3   6.9   277  -0.8  -2.6  87.4
2020-02-16 00:00   7.0   7.8   265  -0.5  -2.7  85.0
2020-02-15 23:00  10.9  12.5   259   0.0  -2.9  80.8
2020-02-15 22:00  11.9  13.4   251   0.5  -3.0  77.1
2020-02-15 21:00  10.5  11.8   239   1.2  -2.8  74.5
2020-02-15 20:00  10.2  11.8   229   0.6  -3.6  73.2
2020-02-15 19:00   8.4  10.1   228   0.6  -4.0  71.5
2020-02-15 18:00   8.1  10.8   230   0.5  -4.2  71.0
2020-02-15 17:00   7.4   8.9   234   0.7  -4.3  69.3
2020-02-15 16:00   8.7  10.1   224   0.2  -4.2  72.1
2020-02-15 15:00  12.6  13.5   213  -0.6  -4.6  74.6
2020-02-15 14:00  14.7  17.1   216  -1.3  -4.2  80.4
2020-02-15 13:00  12.6  14.3   206  -1.4  -5.9  71.4
2020-02-15 12:00  15.2  16.5   202  -2.0  -7.2  67.8
2020-02-15 11:00  15.8  17.6   191  -2.9  -7.9  68.5
2020-02-15 10:00  16.4  17.8   196  -3.4  -9.2  64.2
2020-02-15 09:00  14.2  15.7   196  -4.3  -9.2  68.6
2020-02-15 08:00  16.5  17.6   187  -5.6 -10.6  68.1
2020-02-15 07:00  13.1  14.6   193  -6.3 -10.9  70.1
2020-02-15 06:00  16.7  18.6   193  -7.1 -12.0  68.5
2020-02-15 05:00  14.0  15.1   195  -7.8 -11.6  74.2
2020-02-15 04:00  12.7  14.0   197  -8.8 -12.5  74.8
2020-02-15 03:00  12.7  14.1   192 -10.3 -13.3  78.7
2020-02-15 02:00  12.6  13.5   194 -11.2 -13.9  80.7
2020-02-15 01:00  11.2  12.7   192 -10.9 -13.0  84.8
2020-02-15 00:00  10.5  12.0   197 -11.5 -14.4  79.0
2020-02-14 23:00  10.5  11.4   187 -11.8 -16.9  66.3
2020-02-14 22:00  10.4  12.3   192 -11.8 -15.7  72.8
2020-02-14 21:00  11.7  12.8   185 -11.9 -16.7  68.0
2020-02-14 20:00  10.7  11.9   188 -12.4 -15.9  75.3
2020-02-14 19:00   9.1  10.2   208 -12.1 -18.8  58.1
2020-02-14 18:00   8.5   9.8   200 -11.6 -18.0  59.7
2020-02-14 17:00   8.1   9.2   196  -9.9 -16.7  58.0
2020-02-14 16:00   6.9   8.1   200  -9.5 -19.2  45.8
2020-02-14 15:00   7.2   9.0   196  -9.7 -19.1  46.8
2020-02-14 14:00   5.3   6.6   207 -10.2 -19.2  48.3
2020-02-14 13:00   3.8   4.4   245 -10.8 -21.7  40.7
2020-02-14 12:00   3.1   3.8   269 -11.9 -21.7  44.7
2020-02-14 11:00   4.2   5.1   275 -12.8 -20.5  53.2
2020-02-14 10:00   4.0   4.9   260 -13.9 -20.1  59.8
2020-02-14 09:00   4.0   4.5   263 -15.3 -20.7  63.9
2020-02-14 08:00   5.2   6.4   277 -16.3 -21.0  67.5
2020-02-14 07:00   5.2   6.2   280 -16.4 -21.1  67.2
2020-02-14 06:00   5.4   6.3   275 -16.4 -21.6  64.8
2020-02-14 05:00   5.0   5.7   287 -15.7 -21.3  62.5
2020-02-14 04:00   6.9   8.4   295 -15.5 -20.7  64.8
2020-02-14 03:00   6.6   8.0   291 -14.9 -20.1  64.9
2020-02-14 02:00   7.5   8.5   310 -14.6 -19.8  65.0
2020-02-14 01:00   7.1   7.7   300 -13.9 -19.2  64.9
2020-02-14 00:00   7.7   8.6   302 -13.1 -18.8  62.9
2020-02-13 23:00   7.3   8.0   309 -12.7 -19.0  59.5
2020-02-13 22:00   8.1   9.6   306 -12.3 -18.5  60.3
2020-02-13 21:00   8.6  10.3   312 -12.2 -18.7  58.6
2020-02-13 20:00   9.6  11.0   309 -12.0 -18.5  58.7
2020-02-13 19:00   9.0  10.5   310 -11.7 -17.2  63.8
2020-02-13 18:00  10.0  10.7   310 -11.4 -16.6  66.0
2020-02-13 17:00   8.9  10.3   306 -10.7 -14.9  71.3
2020-02-13 16:00   8.5   9.4   286 -10.5 -14.3  73.8
2020-02-13 15:00   9.6  10.8   301 -10.2 -12.7  82.2
2020-02-13 14:00   9.6  10.3   307 -10.0 -12.6  81.6
2020-02-13 13:00   9.0   9.7   299  -9.9 -12.3  82.8
2020-02-13 12:00  10.9  13.3   322  -9.8 -12.0  84.0
2020-02-13 11:00  13.5  15.3   326  -8.7 -10.0  90.6
2020-02-13 10:00  14.2  15.7   328  -8.3  -9.4  92.1
2020-02-13 09:00  14.4  16.4   328  -7.8  -8.9  91.6
2020-02-13 08:00  14.2  15.4   336  -6.8  -7.5  94.8
2020-02-13 07:00  15.1  16.8   327  -5.9  -6.4  96.4
2020-02-13 06:00  15.6  17.0   339  -3.7  -3.8  99.2
2020-02-13 05:00  13.5  14.5   352  -1.2  -1.8  95.7
2020-02-13 04:00  10.3  11.0   327  -0.8  -0.8 100.2
2020-02-13 03:00   5.6   6.5   288   0.2   0.2 100.2
2020-02-13 02:00   3.9   4.2   306   0.0   0.0 100.2
2020-02-13 01:00   4.3   4.6   305  -0.1  -0.1 100.2
2020-02-13 00:00   5.1   5.7   305   0.1   0.1 100.2
2020-02-12 23:00   2.0   2.2   276   0.1   0.1 100.2
2020-02-12 22:00   0.6   1.0   273   0.1   0.1 100.2
2020-02-12 21:00   2.8   3.1   205   0.1   0.1 100.2
2020-02-12 20:00   4.3   4.4   177   0.1   0.1 100.2
2020-02-12 19:00   2.9   3.1   180   0.1   0.1 100.2
2020-02-12 18:00   3.7   4.0   181   0.1   0.1 100.2